BBRO2: Mountain Fork, Broken Bow Rereg

                                SHEF ID:       BBRO2     Mountain Fork Re-regulation Dam
STATION TYPE:

STAGE RIV-FLOW VOLTAGE BAT-LOAD
ft cfs volt volt
Ccp-Rev Ccp-Rev Ccp-Rev Ccp-Rev
(America/Chicago)
05/08 00:00 390.80 828 13.19 12.58
05/08 01:00 390.58 732 13.19 12.57
05/08 02:00 390.39 659 13.18 12.59
05/08 03:00 390.21 596 13.19 12.59
05/08 04:00 390.06 548 13.18 12.57
05/08 05:00 389.90 494 13.19 12.59
05/08 06:00 389.80 461 13.18 12.59
05/08 07:00 389.67 421 13.18 12.60
05/08 08:00 389.57 392 13.19 12.62
05/08 09:00 389.48 368 13.19 12.60
05/08 10:00 389.39 346 13.19 12.59
05/08 11:00 389.31 327 13.19 12.57
05/08 12:00 389.24 311 13.19 12.54
05/08 13:00 389.17 296 13.19 12.54
05/08 14:00 389.12 286 13.18 12.54
05/08 15:00 389.05 272 13.19 12.54
05/08 16:00 389.00 263 13.19 12.54
05/08 17:00 388.96 256 13.19 12.54
05/08 18:00 388.92 249 13.19 12.56
05/08 19:00 388.88 242 13.19 12.55
05/08 20:00 388.84 235 13.18 12.56
05/08 21:00 ---- ---- ---- ----
05/08 22:00 ---- ---- ---- ----
05/08 23:00 ---- ---- ---- ----
Data processed at Sat 09May2026 01:34 GMT

NOTICE: If you are parsing this page

Please convert to using our Data API. Starting early 2026 we will be migrating to: https://water.usace.army.mil with modern pages rendered in JavaScript. When this migration completes you will no longer be able to scrape this page! CWMSDataAPI (CDA)

Timeseries IDs (TSIDs)

TSIDs used from left to right in the data table
BROM.Stage.Inst.1Hour.0.Ccp-Rev
BROM.Flow.Inst.1Hour.0.Ccp-Rev
BROM.Volt-Battery.Inst.1Hour.0.Ccp-Rev
BROM.Volt-Battery Load.Inst.1Hour.0.Ccp-Rev

                            

All information presented herein is the property of the government of the United States of America and may be revised or deleted at any time without prior notice. Dissemination of this information without the expressed written consent of the Public Affairs Office, Tulsa District U.S. Army Corps of Engineers is strictly prohibited. These data are gathered electronically and, as presented, have NOT undergone any form of quality control. These data are NOT guaranteed to be valid or correct.